Terminal Aerodrome Forecast
Issued by NWS

Home | Current Version | Previous Version | Text Only | Print | Product List | Glossary On
Versions: 1 2 3 4 5 6 7 8 9 10 11 12 13 14
000
FTAK31 PAJN 242330
TAFAWG
TAF
PAWG 242330Z 2500/2524 33006KT P6SM FEW060
     FM250500 12005KT P6SM SCT025 BKN060
     FM250800 09007KT P6SM BKN025 OVC040
     FM251200 VRB05KT 3SM -SN OVC020
     FM252100 04015KT P6SM SCT030 SCT050
      AMD LTD TO CLD VIS AND WIND 2506/2515=

USA.gov is the U.S. government's official web portal to all federal, state and local government web resources and services.